ALK254 OEDF-VCBI
Flight info
| Callsign | ALK254 |
|---|---|
| Flight time | N/A |
| Altitude | 38000 |
| Route | MIBRA N687 KSA/N0452F370 M321 RESAL T533 RAPMA/N0408F290 T533 ULONO L692 DAPOL/N0446F370 L692 ITSAG/N0449F390 L692 GISKA N569 LOTAV M300 VASTU P895 BIKOK BIKOK1A |
| Aircraft | A20N/M-SDE2E3FGHIRWXY/LB1 |
Departure
| Time | N/A |
|---|---|
| Airport | King Fahd International Airport (OEDF) |
Arrival
| Time | 2026-05-06 13:53 |
|---|---|
| Airport | Bandaranaike International Colombo Airport (VCBI) |
| Time | Latitude | Longitude | Altitude | Speed | Heading |
|---|---|---|---|---|---|
| 2026-05-06 11:36 | 16.92507 | 66.89918 | 38837 ft | 455 kts | 123° |
| 2026-05-06 11:37 | 16.88836 | 66.95781 | 38829 ft | 455 kts | 123° |
| 2026-05-06 11:37 | 16.85377 | 67.01304 | 38832 ft | 455 kts | 123° |
| 2026-05-06 11:38 | 16.81912 | 67.06830 | 38829 ft | 455 kts | 123° |
| 2026-05-06 11:38 | 16.78448 | 67.12351 | 38834 ft | 455 kts | 123° |
| 2026-05-06 11:39 | 16.74979 | 67.17873 | 38835 ft | 455 kts | 123° |
| 2026-05-06 11:39 | 16.71508 | 67.23395 | 38833 ft | 455 kts | 123° |
| 2026-05-06 11:40 | 16.68034 | 67.28915 | 38833 ft | 455 kts | 123° |
| 2026-05-06 11:40 | 16.64558 | 67.34436 | 38831 ft | 455 kts | 123° |
| 2026-05-06 11:41 | 16.61082 | 67.39955 | 38831 ft | 455 kts | 123° |
| 2026-05-06 11:41 | 16.57600 | 67.45476 | 38828 ft | 455 kts | 124° |
| 2026-05-06 11:42 | 16.54119 | 67.50990 | 38837 ft | 455 kts | 123° |
| 2026-05-06 11:42 | 16.50636 | 67.56503 | 38833 ft | 455 kts | 123° |
| 2026-05-06 11:43 | 16.47151 | 67.62018 | 38832 ft | 455 kts | 123° |
| 2026-05-06 11:43 | 16.43668 | 67.67523 | 38834 ft | 455 kts | 124° |
| 2026-05-06 11:44 | 16.38437 | 67.75785 | 38826 ft | 455 kts | 124° |
| 2026-05-06 11:44 | 16.34950 | 67.81285 | 38829 ft | 455 kts | 124° |
| 2026-05-06 11:45 | 16.31464 | 67.86783 | 38825 ft | 455 kts | 124° |
| 2026-05-06 11:45 | 16.27974 | 67.92281 | 38828 ft | 455 kts | 124° |
| 2026-05-06 11:46 | 16.24497 | 67.97776 | 38824 ft | 455 kts | 123° |
| 2026-05-06 11:46 | 16.21033 | 68.03290 | 38825 ft | 455 kts | 123° |
| 2026-05-06 11:47 | 16.17571 | 68.08799 | 38823 ft | 455 kts | 123° |
| 2026-05-06 11:47 | 16.14105 | 68.14302 | 38823 ft | 455 kts | 123° |
| 2026-05-06 11:48 | 16.10638 | 68.19800 | 38821 ft | 455 kts | 123° |
| 2026-05-06 11:48 | 16.07193 | 68.25267 | 38816 ft | 455 kts | 123° |
| 2026-05-06 11:49 | 16.03723 | 68.30764 | 38821 ft | 455 kts | 123° |
| 2026-05-06 11:49 | 16.00248 | 68.36264 | 38816 ft | 455 kts | 123° |
| 2026-05-06 11:50 | 15.96773 | 68.41761 | 38816 ft | 455 kts | 123° |
| 2026-05-06 11:50 | 15.93297 | 68.47259 | 38820 ft | 455 kts | 123° |
| 2026-05-06 11:51 | 15.89818 | 68.52750 | 38821 ft | 455 kts | 123° |
| 2026-05-06 11:51 | 15.86335 | 68.58247 | 38818 ft | 455 kts | 123° |
| 2026-05-06 11:52 | 15.82854 | 68.63737 | 38820 ft | 455 kts | 123° |
| 2026-05-06 11:52 | 15.79369 | 68.69228 | 38817 ft | 455 kts | 123° |
| 2026-05-06 11:53 | 15.75889 | 68.74715 | 38820 ft | 455 kts | 123° |
| 2026-05-06 11:53 | 15.72405 | 68.80204 | 38818 ft | 455 kts | 123° |
| 2026-05-06 11:54 | 15.68911 | 68.85685 | 38818 ft | 455 kts | 123° |
| 2026-05-06 11:54 | 15.65421 | 68.91162 | 38812 ft | 455 kts | 123° |
| 2026-05-06 11:55 | 15.61929 | 68.96640 | 38813 ft | 455 kts | 123° |
| 2026-05-06 11:55 | 15.58439 | 69.02115 | 38813 ft | 455 kts | 123° |
| 2026-05-06 11:56 | 15.54951 | 69.07584 | 38811 ft | 455 kts | 123° |
| 2026-05-06 11:56 | 15.51465 | 69.13046 | 38811 ft | 454 kts | 123° |
| 2026-05-06 11:57 | 15.47977 | 69.18512 | 38813 ft | 454 kts | 123° |
| 2026-05-06 11:57 | 15.44490 | 69.23970 | 38808 ft | 454 kts | 123° |
| 2026-05-06 11:58 | 15.41001 | 69.29423 | 38803 ft | 454 kts | 123° |
| 2026-05-06 11:58 | 15.37514 | 69.34870 | 38810 ft | 454 kts | 123° |
| 2026-05-06 11:59 | 15.34026 | 69.40317 | 38801 ft | 454 kts | 123° |
| 2026-05-06 11:59 | 15.30536 | 69.45761 | 38800 ft | 453 kts | 123° |
| 2026-05-06 12:00 | 15.27047 | 69.51201 | 38804 ft | 453 kts | 123° |
| 2026-05-06 12:00 | 15.23557 | 69.56642 | 38803 ft | 453 kts | 123° |
| 2026-05-06 12:01 | 15.20090 | 69.62041 | 38801 ft | 453 kts | 123° |
| 2026-05-06 12:01 | 15.16599 | 69.67472 | 38802 ft | 453 kts | 123° |
| 2026-05-06 12:02 | 15.13110 | 69.72897 | 38801 ft | 453 kts | 123° |
| 2026-05-06 12:02 | 15.09627 | 69.78335 | 38803 ft | 453 kts | 123° |
| 2026-05-06 12:03 | 15.06179 | 69.83783 | 38803 ft | 453 kts | 123° |
| 2026-05-06 12:03 | 15.02726 | 69.89234 | 38803 ft | 453 kts | 123° |
| 2026-05-06 12:04 | 14.99269 | 69.94678 | 38802 ft | 452 kts | 123° |
| 2026-05-06 12:04 | 14.96376 | 69.99230 | 38806 ft | 452 kts | 123° |
| 2026-05-06 12:05 | 14.92360 | 70.05543 | 38806 ft | 452 kts | 123° |
| 2026-05-06 12:05 | 14.89487 | 70.10058 | 38802 ft | 452 kts | 123° |
| 2026-05-06 12:06 | 14.86031 | 70.15483 | 38801 ft | 452 kts | 123° |
| 2026-05-06 12:06 | 14.82575 | 70.20905 | 38798 ft | 452 kts | 123° |
| 2026-05-06 12:07 | 14.79122 | 70.26326 | 38798 ft | 451 kts | 123° |
| 2026-05-06 12:07 | 14.75669 | 70.31741 | 38799 ft | 451 kts | 123° |
| 2026-05-06 12:08 | 14.72210 | 70.37151 | 38796 ft | 451 kts | 123° |
| 2026-05-06 12:08 | 14.68754 | 70.42557 | 38795 ft | 451 kts | 123° |
| 2026-05-06 12:09 | 14.65300 | 70.47961 | 38796 ft | 451 kts | 123° |
| 2026-05-06 12:09 | 14.61847 | 70.53365 | 38794 ft | 451 kts | 124° |
| 2026-05-06 12:10 | 14.58385 | 70.58761 | 38795 ft | 451 kts | 124° |
| 2026-05-06 12:10 | 14.54927 | 70.64156 | 38795 ft | 450 kts | 124° |
| 2026-05-06 12:11 | 14.51472 | 70.69546 | 38800 ft | 450 kts | 124° |
| 2026-05-06 12:11 | 14.48013 | 70.74935 | 38795 ft | 450 kts | 124° |
| 2026-05-06 12:12 | 14.44551 | 70.80325 | 38797 ft | 450 kts | 124° |
| 2026-05-06 12:12 | 14.41095 | 70.85703 | 38791 ft | 449 kts | 124° |
| 2026-05-06 12:13 | 14.37642 | 70.91075 | 38794 ft | 449 kts | 124° |
| 2026-05-06 12:13 | 14.34191 | 70.96447 | 38790 ft | 449 kts | 124° |
| 2026-05-06 12:14 | 14.30788 | 71.01841 | 38788 ft | 449 kts | 123° |
| 2026-05-06 12:14 | 14.27391 | 71.07237 | 38790 ft | 448 kts | 123° |
| 2026-05-06 12:15 | 14.23990 | 71.12622 | 38785 ft | 448 kts | 123° |
| 2026-05-06 12:15 | 14.20585 | 71.18003 | 38791 ft | 448 kts | 123° |
| 2026-05-06 12:16 | 14.17186 | 71.23370 | 38788 ft | 447 kts | 124° |
| 2026-05-06 12:16 | 14.13779 | 71.28741 | 38784 ft | 448 kts | 124° |
| 2026-05-06 12:17 | 14.10370 | 71.34113 | 38787 ft | 448 kts | 124° |
| 2026-05-06 12:17 | 14.06983 | 71.39453 | 38789 ft | 448 kts | 124° |
| 2026-05-06 12:18 | 14.03555 | 71.44859 | 38787 ft | 448 kts | 124° |
| 2026-05-06 12:18 | 14.00143 | 71.50232 | 38791 ft | 448 kts | 124° |
| 2026-05-06 12:19 | 13.96732 | 71.55597 | 38792 ft | 448 kts | 124° |
| 2026-05-06 12:19 | 13.93324 | 71.60957 | 38786 ft | 448 kts | 124° |
| 2026-05-06 12:20 | 13.89909 | 71.66321 | 38787 ft | 447 kts | 124° |
| 2026-05-06 12:20 | 13.86499 | 71.71674 | 38788 ft | 447 kts | 124° |
| 2026-05-06 12:21 | 13.83087 | 71.77030 | 38784 ft | 447 kts | 124° |
| 2026-05-06 12:21 | 13.79675 | 71.82386 | 38783 ft | 448 kts | 124° |
| 2026-05-06 12:22 | 13.76255 | 71.87747 | 38784 ft | 448 kts | 124° |
| 2026-05-06 12:22 | 13.72836 | 71.93102 | 38785 ft | 448 kts | 124° |
| 2026-05-06 12:23 | 13.69418 | 71.98454 | 38781 ft | 448 kts | 124° |
| 2026-05-06 12:23 | 13.65637 | 72.03532 | 38784 ft | 447 kts | 130° |
| 2026-05-06 12:24 | 13.61711 | 72.08492 | 38781 ft | 447 kts | 130° |
| 2026-05-06 12:24 | 13.57793 | 72.13456 | 38780 ft | 447 kts | 130° |
| 2026-05-06 12:25 | 13.53875 | 72.18414 | 38783 ft | 446 kts | 130° |
| 2026-05-06 12:25 | 13.49954 | 72.23370 | 38780 ft | 447 kts | 130° |
| 2026-05-06 12:26 | 13.46041 | 72.28313 | 38778 ft | 446 kts | 130° |
| 2026-05-06 12:26 | 13.42129 | 72.33253 | 38778 ft | 446 kts | 130° |
| 2026-05-06 12:27 | 13.38215 | 72.38191 | 38777 ft | 446 kts | 130° |
| 2026-05-06 12:27 | 13.34301 | 72.43127 | 38779 ft | 446 kts | 130° |
| 2026-05-06 12:28 | 13.30378 | 72.48069 | 38775 ft | 446 kts | 130° |
| 2026-05-06 12:28 | 13.26480 | 72.52977 | 38780 ft | 447 kts | 130° |
| 2026-05-06 12:29 | 13.22554 | 72.57921 | 38773 ft | 447 kts | 130° |
| 2026-05-06 12:29 | 13.18599 | 72.62899 | 38779 ft | 448 kts | 130° |
| 2026-05-06 12:30 | 13.14693 | 72.67813 | 38774 ft | 447 kts | 130° |
| 2026-05-06 12:30 | 13.10755 | 72.72761 | 38772 ft | 448 kts | 130° |
| 2026-05-06 12:31 | 13.06814 | 72.77712 | 38772 ft | 448 kts | 129° |
| 2026-05-06 12:31 | 13.02873 | 72.82660 | 38773 ft | 448 kts | 129° |
| 2026-05-06 12:32 | 12.98929 | 72.87609 | 38768 ft | 448 kts | 129° |
| 2026-05-06 12:32 | 12.94985 | 72.92555 | 38769 ft | 447 kts | 129° |
| 2026-05-06 12:33 | 12.91046 | 72.97492 | 38767 ft | 448 kts | 129° |
| 2026-05-06 12:33 | 12.87105 | 73.02431 | 38766 ft | 447 kts | 129° |
| 2026-05-06 12:34 | 12.83163 | 73.07366 | 38764 ft | 447 kts | 129° |
| 2026-05-06 12:34 | 12.79226 | 73.12292 | 38767 ft | 446 kts | 129° |
| 2026-05-06 12:35 | 12.75293 | 73.17210 | 38761 ft | 447 kts | 129° |
| 2026-05-06 12:35 | 12.71350 | 73.22136 | 38766 ft | 446 kts | 129° |
| 2026-05-06 12:36 | 12.67417 | 73.27050 | 38766 ft | 446 kts | 129° |
| 2026-05-06 12:36 | 12.63479 | 73.31968 | 38762 ft | 446 kts | 129° |
| 2026-05-06 12:37 | 12.59548 | 73.36874 | 38765 ft | 446 kts | 129° |
| 2026-05-06 12:37 | 12.55611 | 73.41784 | 38758 ft | 446 kts | 129° |
| 2026-05-06 12:38 | 12.51681 | 73.46683 | 38758 ft | 445 kts | 129° |
| 2026-05-06 12:38 | 12.47751 | 73.51579 | 38762 ft | 444 kts | 129° |
| 2026-05-06 12:39 | 12.43828 | 73.56465 | 38758 ft | 445 kts | 129° |
| 2026-05-06 12:39 | 12.39900 | 73.61353 | 38757 ft | 445 kts | 129° |
| 2026-05-06 12:40 | 12.36194 | 73.65964 | 38756 ft | 445 kts | 129° |
| 2026-05-06 12:40 | 12.32268 | 73.70845 | 38754 ft | 444 kts | 129° |
| 2026-05-06 12:41 | 12.28341 | 73.75724 | 38753 ft | 444 kts | 129° |
| 2026-05-06 12:41 | 12.24412 | 73.80603 | 38754 ft | 445 kts | 129° |
| 2026-05-06 12:42 | 12.20490 | 73.85471 | 38757 ft | 444 kts | 129° |
| 2026-05-06 12:42 | 12.16566 | 73.90340 | 38753 ft | 443 kts | 129° |
| 2026-05-06 12:43 | 12.12650 | 73.95196 | 38751 ft | 442 kts | 129° |
| 2026-05-06 12:43 | 12.08738 | 74.00044 | 38756 ft | 443 kts | 129° |
| 2026-05-06 12:44 | 12.04821 | 74.04899 | 38755 ft | 442 kts | 129° |
| 2026-05-06 12:44 | 12.00907 | 74.09745 | 38749 ft | 443 kts | 129° |
| 2026-05-06 12:45 | 11.96988 | 74.14597 | 38751 ft | 443 kts | 129° |
| 2026-05-06 12:46 | 11.91124 | 74.21852 | 38747 ft | 441 kts | 129° |
| 2026-05-06 12:46 | 11.87208 | 74.26693 | 38748 ft | 442 kts | 129° |
| 2026-05-06 12:47 | 11.83955 | 74.30711 | 38748 ft | 441 kts | 129° |
| 2026-05-06 12:47 | 11.80048 | 74.35536 | 38747 ft | 441 kts | 129° |
| 2026-05-06 12:48 | 11.76153 | 74.40343 | 38746 ft | 441 kts | 129° |
| 2026-05-06 12:48 | 11.72234 | 74.45178 | 38744 ft | 442 kts | 129° |
| 2026-05-06 12:49 | 11.68324 | 74.50000 | 38741 ft | 439 kts | 129° |
| 2026-05-06 12:49 | 11.64435 | 74.54794 | 38744 ft | 439 kts | 129° |
| 2026-05-06 12:50 | 11.60522 | 74.59615 | 38744 ft | 442 kts | 129° |
| 2026-05-06 12:50 | 11.56606 | 74.64436 | 38666 ft | 439 kts | 130° |
| 2026-05-06 12:50 | 11.54664 | 74.66828 | 38298 ft | 438 kts | 130° |
| 2026-05-06 12:51 | 11.52731 | 74.69207 | 38050 ft | 433 kts | 130° |
| 2026-05-06 12:51 | 11.50800 | 74.71583 | 37937 ft | 438 kts | 130° |
| 2026-05-06 12:51 | 11.48842 | 74.73991 | 37834 ft | 444 kts | 130° |
| 2026-05-06 12:52 | 11.44876 | 74.78868 | 37743 ft | 447 kts | 130° |
| 2026-05-06 12:52 | 11.40918 | 74.83731 | 37742 ft | 446 kts | 130° |
| 2026-05-06 12:53 | 11.36959 | 74.88598 | 37739 ft | 446 kts | 130° |
| 2026-05-06 12:53 | 11.33000 | 74.93457 | 37747 ft | 445 kts | 130° |
| 2026-05-06 12:54 | 11.29046 | 74.98305 | 37743 ft | 445 kts | 130° |
| 2026-05-06 12:54 | 11.25084 | 75.03166 | 37744 ft | 445 kts | 130° |
| 2026-05-06 12:55 | 11.21130 | 75.08016 | 37731 ft | 444 kts | 130° |
| 2026-05-06 12:55 | 11.17177 | 75.12861 | 37732 ft | 445 kts | 130° |
| 2026-05-06 12:56 | 11.13223 | 75.17703 | 37734 ft | 444 kts | 130° |
| 2026-05-06 12:56 | 11.09297 | 75.22511 | 37729 ft | 444 kts | 130° |
| 2026-05-06 12:57 | 11.05348 | 75.27343 | 37741 ft | 444 kts | 130° |
| 2026-05-06 12:57 | 11.01391 | 75.32184 | 37739 ft | 445 kts | 130° |
| 2026-05-06 12:58 | 10.97441 | 75.37014 | 37738 ft | 443 kts | 130° |
| 2026-05-06 12:58 | 10.93498 | 75.41833 | 37744 ft | 443 kts | 130° |
| 2026-05-06 12:59 | 10.89557 | 75.46646 | 37738 ft | 442 kts | 130° |
| 2026-05-06 12:59 | 10.85632 | 75.51438 | 37733 ft | 441 kts | 130° |
| 2026-05-06 13:00 | 10.81695 | 75.56242 | 37740 ft | 442 kts | 130° |
| 2026-05-06 13:00 | 10.77759 | 75.61027 | 37739 ft | 440 kts | 130° |
| 2026-05-06 13:01 | 10.73832 | 75.65806 | 37732 ft | 441 kts | 130° |
| 2026-05-06 13:01 | 10.69905 | 75.70592 | 37739 ft | 440 kts | 130° |
| 2026-05-06 13:02 | 10.65985 | 75.75380 | 37740 ft | 440 kts | 130° |
| 2026-05-06 13:02 | 10.62064 | 75.80168 | 37741 ft | 441 kts | 130° |
| 2026-05-06 13:03 | 10.58137 | 75.84947 | 37736 ft | 440 kts | 130° |
| 2026-05-06 13:03 | 10.54186 | 75.89752 | 37740 ft | 440 kts | 130° |
| 2026-05-06 13:04 | 10.50275 | 75.94509 | 37748 ft | 442 kts | 129° |
| 2026-05-06 13:04 | 10.46331 | 75.99306 | 37743 ft | 443 kts | 129° |
| 2026-05-06 13:05 | 10.42378 | 76.04108 | 37749 ft | 443 kts | 129° |
| 2026-05-06 13:05 | 10.38420 | 76.08916 | 37750 ft | 444 kts | 129° |
| 2026-05-06 13:06 | 10.34458 | 76.13726 | 37753 ft | 444 kts | 129° |
| 2026-05-06 13:06 | 10.30493 | 76.18536 | 37760 ft | 444 kts | 129° |
| 2026-05-06 13:07 | 10.26736 | 76.23091 | 37769 ft | 444 kts | 129° |
| 2026-05-06 13:07 | 10.22771 | 76.27897 | 37766 ft | 444 kts | 129° |
| 2026-05-06 13:08 | 10.18805 | 76.32703 | 37773 ft | 444 kts | 129° |
| 2026-05-06 13:08 | 10.14838 | 76.37511 | 37770 ft | 444 kts | 129° |
| 2026-05-06 13:09 | 10.10859 | 76.42306 | 37767 ft | 444 kts | 130° |
| 2026-05-06 13:09 | 10.06872 | 76.47100 | 37769 ft | 444 kts | 130° |
| 2026-05-06 13:10 | 10.02884 | 76.51894 | 37766 ft | 445 kts | 130° |
| 2026-05-06 13:10 | 9.98894 | 76.56691 | 37764 ft | 445 kts | 130° |
| 2026-05-06 13:11 | 9.94901 | 76.61493 | 37771 ft | 445 kts | 130° |
| 2026-05-06 13:11 | 9.90902 | 76.66299 | 37779 ft | 446 kts | 130° |
| 2026-05-06 13:12 | 9.86900 | 76.71104 | 37796 ft | 446 kts | 130° |
| 2026-05-06 13:12 | 9.82892 | 76.75916 | 37798 ft | 447 kts | 130° |
| 2026-05-06 13:13 | 9.78883 | 76.80727 | 37812 ft | 447 kts | 130° |
| 2026-05-06 13:13 | 9.74869 | 76.85542 | 37815 ft | 447 kts | 130° |
| 2026-05-06 13:14 | 9.70852 | 76.90359 | 37821 ft | 447 kts | 130° |
| 2026-05-06 13:14 | 9.66834 | 76.95176 | 37832 ft | 447 kts | 130° |
| 2026-05-06 13:15 | 9.62817 | 76.99993 | 37833 ft | 447 kts | 130° |
| 2026-05-06 13:15 | 9.58799 | 77.04802 | 37831 ft | 447 kts | 130° |
| 2026-05-06 13:16 | 9.54780 | 77.09612 | 37836 ft | 447 kts | 130° |
| 2026-05-06 13:16 | 9.50759 | 77.14422 | 37839 ft | 447 kts | 130° |
| 2026-05-06 13:17 | 9.46740 | 77.19229 | 37832 ft | 447 kts | 130° |
| 2026-05-06 13:17 | 9.42725 | 77.24032 | 37831 ft | 447 kts | 130° |
| 2026-05-06 13:18 | 9.38710 | 77.28832 | 37829 ft | 447 kts | 130° |
| 2026-05-06 13:18 | 9.34692 | 77.33635 | 37825 ft | 447 kts | 130° |
| 2026-05-06 13:19 | 9.30672 | 77.38435 | 37817 ft | 447 kts | 130° |
| 2026-05-06 13:19 | 9.26657 | 77.43230 | 37813 ft | 447 kts | 130° |
| 2026-05-06 13:20 | 9.22635 | 77.48031 | 37807 ft | 447 kts | 130° |
| 2026-05-06 13:20 | 9.18638 | 77.52797 | 37802 ft | 447 kts | 130° |
| 2026-05-06 13:21 | 9.14615 | 77.57594 | 37796 ft | 447 kts | 130° |
| 2026-05-06 13:21 | 9.10590 | 77.62392 | 37789 ft | 447 kts | 130° |
| 2026-05-06 13:22 | 9.06561 | 77.67191 | 37789 ft | 447 kts | 130° |
| 2026-05-06 13:22 | 9.02532 | 77.71989 | 37789 ft | 447 kts | 130° |
| 2026-05-06 13:23 | 8.98505 | 77.76785 | 37788 ft | 447 kts | 130° |
| 2026-05-06 13:23 | 8.94476 | 77.81581 | 37795 ft | 447 kts | 130° |
| 2026-05-06 13:24 | 8.90447 | 77.86373 | 37797 ft | 447 kts | 130° |
| 2026-05-06 13:24 | 8.86432 | 77.91148 | 37794 ft | 444 kts | 130° |
| 2026-05-06 13:25 | 8.82428 | 77.95909 | 37799 ft | 444 kts | 130° |
| 2026-05-06 13:25 | 8.78426 | 78.00665 | 37804 ft | 444 kts | 130° |
| 2026-05-06 13:26 | 8.74425 | 78.05420 | 37801 ft | 444 kts | 130° |
| 2026-05-06 13:26 | 8.70430 | 78.10166 | 37802 ft | 443 kts | 130° |
| 2026-05-06 13:27 | 8.66438 | 78.14902 | 37793 ft | 442 kts | 130° |
| 2026-05-06 13:27 | 8.62451 | 78.19632 | 37787 ft | 442 kts | 130° |
| 2026-05-06 13:28 | 8.58467 | 78.24357 | 37776 ft | 441 kts | 130° |
| 2026-05-06 13:28 | 8.54488 | 78.29077 | 37773 ft | 441 kts | 130° |
| 2026-05-06 13:29 | 8.50508 | 78.33793 | 37769 ft | 441 kts | 130° |
| 2026-05-06 13:29 | 8.46532 | 78.38507 | 37774 ft | 441 kts | 130° |
| 2026-05-06 13:30 | 8.42556 | 78.43224 | 37774 ft | 441 kts | 130° |
| 2026-05-06 13:30 | 8.38575 | 78.47938 | 37721 ft | 442 kts | 130° |
| 2026-05-06 13:30 | 8.36576 | 78.50302 | 37480 ft | 443 kts | 130° |
| 2026-05-06 13:31 | 8.34576 | 78.52665 | 37227 ft | 442 kts | 130° |
| 2026-05-06 13:31 | 8.33229 | 78.54257 | 37047 ft | 441 kts | 130° |
| 2026-05-06 13:31 | 8.31263 | 78.56580 | 36605 ft | 440 kts | 130° |
| 2026-05-06 13:31 | 8.29273 | 78.58934 | 35878 ft | 443 kts | 130° |
| 2026-05-06 13:32 | 8.26761 | 78.62300 | 34551 ft | 455 kts | 126° |
| 2026-05-06 13:32 | 8.25550 | 78.64035 | 34091 ft | 456 kts | 126° |
| 2026-05-06 13:32 | 8.23723 | 78.66646 | 33250 ft | 457 kts | 126° |
| 2026-05-06 13:32 | 8.21880 | 78.69271 | 32200 ft | 457 kts | 126° |
| 2026-05-06 13:33 | 8.20046 | 78.71879 | 31129 ft | 456 kts | 126° |
| 2026-05-06 13:33 | 8.18197 | 78.74506 | 29886 ft | 462 kts | 125° |
| 2026-05-06 13:33 | 8.16333 | 78.77155 | 28729 ft | 462 kts | 125° |
| 2026-05-06 13:33 | 8.14489 | 78.79777 | 27955 ft | 454 kts | 125° |
| 2026-05-06 13:34 | 8.12668 | 78.82366 | 27535 ft | 452 kts | 125° |
| 2026-05-06 13:34 | 8.10849 | 78.84951 | 27288 ft | 453 kts | 125° |
| 2026-05-06 13:34 | 8.09025 | 78.87543 | 26943 ft | 453 kts | 125° |
| 2026-05-06 13:34 | 8.07194 | 78.90144 | 26229 ft | 456 kts | 125° |
| 2026-05-06 13:35 | 8.05343 | 78.92773 | 25225 ft | 464 kts | 125° |
| 2026-05-06 13:35 | 8.03464 | 78.95441 | 24363 ft | 467 kts | 125° |
| 2026-05-06 13:35 | 8.01591 | 78.98103 | 23780 ft | 463 kts | 125° |
| 2026-05-06 13:35 | 7.99756 | 79.00708 | 23558 ft | 445 kts | 125° |
| 2026-05-06 13:36 | 7.97997 | 79.03204 | 23044 ft | 431 kts | 125° |
| 2026-05-06 13:36 | 7.96267 | 79.05659 | 22290 ft | 427 kts | 126° |
| 2026-05-06 13:36 | 7.94562 | 79.08079 | 21494 ft | 421 kts | 126° |
| 2026-05-06 13:36 | 7.92877 | 79.10470 | 20663 ft | 416 kts | 126° |
| 2026-05-06 13:37 | 7.91209 | 79.12836 | 19762 ft | 413 kts | 126° |
| 2026-05-06 13:37 | 7.89547 | 79.15194 | 19020 ft | 408 kts | 126° |
| 2026-05-06 13:37 | 7.87921 | 79.17502 | 18334 ft | 401 kts | 126° |
| 2026-05-06 13:37 | 7.86336 | 79.19751 | 17537 ft | 396 kts | 126° |
| 2026-05-06 13:38 | 7.84750 | 79.21998 | 16704 ft | 392 kts | 126° |
| 2026-05-06 13:38 | 7.83188 | 79.24212 | 16183 ft | 380 kts | 126° |
| 2026-05-06 13:38 | 7.81678 | 79.26353 | 15645 ft | 370 kts | 126° |
| 2026-05-06 13:38 | 7.80189 | 79.28461 | 15087 ft | 369 kts | 126° |
| 2026-05-06 13:39 | 7.78702 | 79.30568 | 14544 ft | 368 kts | 126° |
| 2026-05-06 13:39 | 7.77217 | 79.32670 | 13995 ft | 368 kts | 126° |
| 2026-05-06 13:39 | 7.75730 | 79.34775 | 13434 ft | 368 kts | 126° |
| 2026-05-06 13:39 | 7.74260 | 79.36856 | 13057 ft | 360 kts | 126° |
| 2026-05-06 13:40 | 7.72813 | 79.38906 | 12577 ft | 358 kts | 126° |
| 2026-05-06 13:40 | 7.71374 | 79.40943 | 12046 ft | 356 kts | 126° |
| 2026-05-06 13:40 | 7.69941 | 79.42971 | 11517 ft | 354 kts | 126° |
| 2026-05-06 13:40 | 7.68514 | 79.44990 | 10994 ft | 352 kts | 125° |
| 2026-05-06 13:41 | 7.67094 | 79.46997 | 10490 ft | 350 kts | 125° |
| 2026-05-06 13:41 | 7.65705 | 79.48962 | 10341 ft | 336 kts | 125° |
| 2026-05-06 13:41 | 7.64377 | 79.50839 | 10192 ft | 321 kts | 125° |
| 2026-05-06 13:41 | 7.63118 | 79.52620 | 9958 ft | 305 kts | 125° |
| 2026-05-06 13:42 | 7.61901 | 79.54340 | 9469 ft | 299 kts | 125° |
| 2026-05-06 13:42 | 7.60718 | 79.56014 | 9223 ft | 289 kts | 125° |
| 2026-05-06 13:42 | 7.59525 | 79.57702 | 9016 ft | 304 kts | 125° |
| 2026-05-06 13:42 | 7.58289 | 79.59450 | 8860 ft | 305 kts | 125° |
| 2026-05-06 13:43 | 7.57071 | 79.61172 | 8746 ft | 297 kts | 125° |
| 2026-05-06 13:43 | 7.55877 | 79.62860 | 8414 ft | 295 kts | 125° |
| 2026-05-06 13:43 | 7.54690 | 79.64537 | 8040 ft | 293 kts | 125° |
| 2026-05-06 13:43 | 7.53510 | 79.66204 | 7650 ft | 291 kts | 125° |
| 2026-05-06 13:44 | 7.52337 | 79.67860 | 7275 ft | 289 kts | 125° |
| 2026-05-06 13:44 | 7.51173 | 79.69507 | 6909 ft | 287 kts | 125° |
| 2026-05-06 13:44 | 7.50017 | 79.71140 | 6544 ft | 285 kts | 125° |
| 2026-05-06 13:44 | 7.48867 | 79.72764 | 6178 ft | 284 kts | 125° |
| 2026-05-06 13:45 | 7.47728 | 79.74374 | 5811 ft | 281 kts | 126° |
| 2026-05-06 13:45 | 7.45470 | 79.77565 | 5059 ft | 278 kts | 126° |
| 2026-05-06 13:45 | 7.44349 | 79.79148 | 4682 ft | 277 kts | 126° |
| 2026-05-06 13:46 | 7.43238 | 79.80719 | 4335 ft | 274 kts | 126° |
| 2026-05-06 13:46 | 7.42137 | 79.82275 | 4060 ft | 269 kts | 126° |
| 2026-05-06 13:46 | 7.41072 | 79.83782 | 3856 ft | 261 kts | 126° |
| 2026-05-06 13:46 | 7.40020 | 79.85268 | 3492 ft | 261 kts | 127° |
| 2026-05-06 13:47 | 7.38970 | 79.86747 | 3207 ft | 257 kts | 127° |
| 2026-05-06 13:47 | 7.37931 | 79.88213 | 2842 ft | 257 kts | 127° |
| 2026-05-06 13:47 | 7.36896 | 79.89674 | 2499 ft | 255 kts | 127° |
| 2026-05-06 13:47 | 7.35883 | 79.91103 | 2365 ft | 246 kts | 127° |
| 2026-05-06 13:48 | 7.34880 | 79.92489 | 2085 ft | 244 kts | 129° |
| 2026-05-06 13:48 | 7.33845 | 79.93834 | 1806 ft | 241 kts | 129° |
| 2026-05-06 13:48 | 7.32830 | 79.95133 | 1712 ft | 230 kts | 129° |
| 2026-05-06 13:48 | 7.31858 | 79.96356 | 1614 ft | 216 kts | 136° |
| 2026-05-06 13:49 | 7.30627 | 79.97065 | 1530 ft | 199 kts | 171° |
| 2026-05-06 13:49 | 7.29341 | 79.96927 | 1514 ft | 179 kts | 202° |
| 2026-05-06 13:49 | 7.28382 | 79.96260 | 1496 ft | 157 kts | 217° |
| 2026-05-06 13:49 | 7.27559 | 79.95614 | 1512 ft | 148 kts | 216° |
| 2026-05-06 13:50 | 7.26746 | 79.95015 | 1520 ft | 147 kts | 214° |
| 2026-05-06 13:50 | 7.25960 | 79.94419 | 1492 ft | 131 kts | 216° |
| 2026-05-06 13:50 | 7.25238 | 79.93863 | 1417 ft | 134 kts | 215° |
| 2026-05-06 13:50 | 7.24514 | 79.93305 | 1235 ft | 128 kts | 215° |
| 2026-05-06 13:51 | 7.23804 | 79.92757 | 1070 ft | 131 kts | 216° |
| 2026-05-06 13:51 | 7.23071 | 79.92192 | 916 ft | 131 kts | 216° |
| 2026-05-06 13:51 | 7.22360 | 79.91643 | 765 ft | 127 kts | 216° |
| 2026-05-06 13:51 | 7.21658 | 79.91103 | 620 ft | 126 kts | 217° |
| 2026-05-06 13:52 | 7.20962 | 79.90565 | 462 ft | 126 kts | 218° |
| 2026-05-06 13:52 | 7.20272 | 79.90038 | 293 ft | 125 kts | 217° |
| 2026-05-06 13:52 | 7.19571 | 79.89501 | 133 ft | 128 kts | 225° |
| 2026-05-06 13:52 | 7.18878 | 79.88958 | 31 ft | 120 kts | 215° |
| 2026-05-06 13:53 | 7.18371 | 79.88569 | 27 ft | 63 kts | 218° |
| 2026-05-06 13:53 | 7.18166 | 79.88412 | 27 ft | 25 kts | 220° |
| 2026-05-06 13:53 | 7.18030 | 79.88310 | 28 ft | 25 kts | 216° |
| 2026-05-06 13:53 | 7.17906 | 79.88219 | 29 ft | 15 kts | 207° |
| 2026-05-06 13:54 | 7.17836 | 79.88258 | 29 ft | 14 kts | 118° |
| 2026-05-06 13:54 | 7.17822 | 79.88279 | 28 ft | 0 kts | 125° |
| 2026-05-06 13:55 | 7.17817 | 79.88286 | 28 ft | 4 kts | 126° |
| 2026-05-06 13:55 | 7.17793 | 79.88335 | 27 ft | 10 kts | 99° |
| 2026-05-06 13:55 | 7.17843 | 79.88399 | 27 ft | 14 kts | 60° |
| 2026-05-06 13:55 | 7.17818 | 79.88491 | 27 ft | 16 kts | 126° |
| 2026-05-06 13:56 | 7.17750 | 79.88580 | 27 ft | 12 kts | 127° |
| 2026-05-06 13:56 | 7.17712 | 79.88627 | 27 ft | 8 kts | 136° |
| 2026-05-06 13:56 | 7.17670 | 79.88615 | 27 ft | 8 kts | 224° |
| 2026-05-06 13:56 | 7.17627 | 79.88576 | 27 ft | 6 kts | 217° |
| 2026-05-06 13:57 | 7.17619 | 79.88570 | 27 ft | 0 kts | 217° |
| 2026-05-06 13:57 | 7.17617 | 79.88568 | 27 ft | 1 kts | 217° |
| 2026-05-06 13:57 | 7.17615 | 79.88567 | 27 ft | 0 kts | 217° |